Time;durP1;ratioP1;P1;durP2;ratioP2;P2;SDS_P1;SDS_P2;PMS_P1;PMS_P2;Temp;Humidity;BMP_temperature;BMP_pressure;BME280_temperature;BME280_humidity;BME280_pressure;Samples;Min_cycle;Max_cycle;Signal;HPM_P1;HPM_P2
2022/03/29 00:01:33;;;;;;;15.27;8.77;;;;;;;9.56;59.02;98557.91;4378265;32;20091;-70
2022/03/29 00:04:01;;;;;;;19.58;10.05;;;;;;;9.41;59.54;98562.69;4378165;32;20090;-70
2022/03/29 00:06:28;;;;;;;13.20;8.50;;;;;;;9.30;60.24;98560.22;4378324;32;20110;-70
2022/03/29 00:08:56;;;;;;;15.40;8.20;;;;;;;9.25;60.47;98554.56;4378111;32;20121;-70
2022/03/29 00:11:23;;;;;;;12.00;8.45;;;;;;;9.13;60.96;98555.59;4379495;32;20472;-70
2022/03/29 00:13:50;;;;;;;14.60;9.20;;;;;;;9.06;61.23;98548.31;4380280;32;20109;-70
2022/03/29 00:16:17;;;;;;;13.65;8.50;;;;;;;9.06;61.37;98552.72;4380309;32;20087;-70
2022/03/29 00:18:50;;;;;;;;;;;;;;;9.02;61.33;98539.09;4380888;32;20133;-70
2022/03/29 00:21:18;;;;;;;14.70;8.05;;;;;;;8.92;61.56;98535.63;4380313;32;20355;-70
2022/03/29 00:23:45;;;;;;;15.40;9.07;;;;;;;8.90;61.67;98537.50;4380328;32;20117;-70
2022/03/29 00:26:14;;;;;;;16.83;8.52;;;;;;;8.85;61.74;98532.69;4380123;32;20102;-70
2022/03/29 00:28:42;;;;;;;15.05;9.23;;;;;;;8.90;61.59;98524.44;4380101;32;20103;-70
2022/03/29 00:31:11;;;;;;;13.20;7.93;;;;;;;8.85;61.62;98521.44;4380499;32;20117;-70
2022/03/29 00:33:38;;;;;;;14.60;7.80;;;;;;;8.80;61.79;98514.00;4380194;32;20539;-70
2022/03/29 00:36:05;;;;;;;14.87;8.52;;;;;;;8.69;62.07;98517.53;4380198;32;20346;-70
2022/03/29 00:38:32;;;;;;;15.25;8.52;;;;;;;8.63;62.31;98510.22;4380239;32;20125;-70
2022/03/29 00:41:01;;;;;;;11.93;7.75;;;;;;;8.62;62.29;98513.78;4380169;32;20094;-70
2022/03/29 00:43:28;;;;;;;15.07;8.15;;;;;;;8.58;62.51;98506.34;4380084;32;20452;-70
2022/03/29 00:45:56;;;;;;;15.55;9.10;;;;;;;8.55;62.56;98509.22;4380026;32;20448;-70
2022/03/29 00:48:23;;;;;;;14.05;8.10;;;;;;;8.41;62.89;98499.91;4380001;32;20142;-70
2022/03/29 00:50:52;;;;;;;15.77;8.70;;;;;;;8.33;63.26;98500.56;4379899;32;20557;-70
2022/03/29 00:53:20;;;;;;;14.80;8.73;;;;;;;8.38;63.13;98502.78;4366593;32;20108;-70
2022/03/29 00:55:48;;;;;;;15.73;9.00;;;;;;;8.28;63.45;98493.13;4366665;32;20439;-70
2022/03/29 00:58:16;;;;;;;13.55;8.23;;;;;;;8.24;63.31;98488.28;4380086;32;20095;-70
2022/03/29 01:00:44;;;;;;;12.82;8.27;;;;;;;8.22;63.46;98482.34;4380071;32;20087;-70
2022/03/29 01:03:11;;;;;;;13.82;7.97;;;;;;;8.11;63.76;98476.25;4379809;32;20456;-70
2022/03/29 01:05:39;;;;;;;14.38;8.27;;;;;;;8.07;63.96;98477.50;4379927;32;20111;-70
2022/03/29 01:08:06;;;;;;;16.58;8.65;;;;;;;8.05;64.04;98468.94;4379867;32;20086;-70
2022/03/29 01:10:34;;;;;;;14.30;8.15;;;;;;;8.05;64.28;98471.56;4379934;32;20094;-70
2022/03/29 01:13:01;;;;;;;11.57;7.72;;;;;;;8.12;63.76;98472.69;4379869;32;20109;-70
2022/03/29 01:15:29;;;;;;;21.05;8.35;;;;;;;8.08;63.67;98463.47;4379791;32;20130;-70
2022/03/29 01:17:57;;;;;;;12.73;7.78;;;;;;;7.98;64.26;98460.00;4379907;32;20106;-70
2022/03/29 01:20:27;;;;;;;15.60;8.38;;;;;;;7.96;64.41;98467.94;4366392;32;20125;-70
2022/03/29 01:22:56;;;;;;;15.00;9.18;;;;;;;8.01;64.63;98459.75;4379443;32;20416;-70
2022/03/29 01:25:26;;;;;;;12.93;7.45;;;;;;;8.07;64.14;98458.38;4366343;32;20177;-70
2022/03/29 01:27:53;;;;;;;18.60;8.27;;;;;;;7.84;64.94;98462.91;4379768;32;20090;-70
2022/03/29 01:30:21;;;;;;;13.80;7.70;;;;;;;7.84;65.38;98458.50;4379818;32;20094;-70
2022/03/29 01:32:50;;;;;;;16.60;8.10;;;;;;;7.91;65.33;98464.88;4380007;32;20094;-70
2022/03/29 01:35:20;;;;;;;12.18;7.85;;;;;;;7.81;65.79;98459.63;4379875;32;20137;-70
2022/03/29 01:37:47;;;;;;;17.35;7.75;;;;;;;7.91;65.57;98458.84;4379785;32;20095;-70
2022/03/29 01:40:17;;;;;;;15.43;7.37;;;;;;;8.03;65.17;98451.78;4379797;32;20114;-70
2022/03/29 01:42:49;;;;;;;17.50;8.10;;;;;;;7.99;65.27;98441.59;4378528;32;20109;-70
2022/03/29 01:45:18;;;;;;;14.52;7.62;;;;;;;7.97;65.59;98447.91;4379705;32;20468;-70
2022/03/29 01:47:46;;;;;;;13.68;7.53;;;;;;;8.18;65.03;98440.88;4379661;32;20465;-70
2022/03/29 01:50:13;;;;;;;11.93;6.78;;;;;;;8.28;64.38;98430.50;4379656;32;20110;-70
2022/03/29 01:52:45;;;;;;;11.60;7.50;;;;;;;8.29;64.58;98432.13;4379542;32;20113;-70
2022/03/29 01:55:14;;;;;;;11.23;7.40;;;;;;;8.41;64.67;98421.59;4379661;32;20441;-70
2022/03/29 01:57:42;;;;;;;12.18;6.97;;;;;;;8.45;64.49;98423.03;4379621;32;20125;-70
2022/03/29 02:02:57;;;;;;;14.27;6.78;;;;;;;8.94;62.44;98423.97;4379659;32;20437;-70
2022/03/29 02:05:25;;;;;;;12.65;6.72;;;;;;;8.97;62.48;98407.19;4379792;32;20154;-70
2022/03/29 02:07:52;;;;;;;14.38;6.70;;;;;;;9.06;62.09;98415.03;4379514;32;20416;-70
2022/03/29 02:10:21;;;;;;;13.25;6.72;;;;;;;8.93;62.14;98400.59;4379559;32;20141;-70
2022/03/29 02:12:50;;;;;;;10.80;6.80;;;;;;;8.69;63.15;98402.63;4379426;32;20113;-70
2022/03/29 02:15:18;;;;;;;14.60;7.97;;;;;;;8.45;64.01;98397.75;4379425;32;20121;-70
2022/03/29 02:17:48;;;;;;;13.15;7.12;;;;;;;8.67;63.77;98399.28;4379475;32;20452;-70
2022/03/29 02:20:16;;;;;;;12.77;7.03;;;;;;;8.94;62.55;98399.63;4379596;32;20405;-70
2022/03/29 02:22:44;;;;;;;17.23;7.25;;;;;;;9.12;61.67;98394.56;4366005;32;20140;-70
2022/03/29 02:25:11;;;;;;;13.32;6.87;;;;;;;9.27;60.85;98390.56;4379404;32;20114;-70
2022/03/29 02:27:43;;;;;;;11.30;6.37;;;;;;;9.05;61.34;98395.13;4379397;32;20487;-70
2022/03/29 02:30:13;;;;;;;14.52;7.03;;;;;;;9.06;61.21;98393.31;4379313;32;20437;-70
2022/03/29 02:32:41;;;;;;;14.13;7.30;;;;;;;8.66;62.60;98397.66;4379490;32;20121;-70
2022/03/29 02:35:08;;;;;;;11.02;7.03;;;;;;;8.47;63.10;98390.59;4378185;32;20221;-70
2022/03/29 02:37:36;;;;;;;10.00;6.68;;;;;;;8.39;63.40;98384.34;4379509;32;20516;-70
2022/03/29 02:40:05;;;;;;;11.88;6.80;;;;;;;8.26;63.98;98384.59;4379305;32;20106;-70
2022/03/29 02:42:39;;;;;;;11.27;7.45;;;;;;;8.05;64.65;98382.84;4379306;32;20108;-70
2022/03/29 02:45:07;;;;;;;;;;;;;;;7.97;64.98;98385.31;4379690;32;20118;-70
2022/03/29 02:47:34;;;;;;;13.07;7.15;;;;;;;8.07;64.75;98385.31;4379533;32;20027;-70
2022/03/29 02:50:01;;;;;;;11.45;6.62;;;;;;;8.01;65.25;98384.09;4379297;32;20113;-70
2022/03/29 02:52:29;;;;;;;12.35;6.50;;;;;;;8.12;64.83;98373.56;4379179;32;20146;-70
2022/03/29 02:54:56;;;;;;;12.77;7.10;;;;;;;8.05;65.03;98363.78;4379181;32;20118;-70
2022/03/29 02:57:23;;;;;;;13.50;6.78;;;;;;;7.93;65.54;98369.09;4379261;32;20102;-70
2022/03/29 02:59:50;;;;;;;16.85;7.87;;;;;;;7.91;65.67;98363.16;4379262;32;20107;-70
2022/03/29 03:02:18;;;;;;;12.18;6.97;;;;;;;8.06;65.40;98357.59;4379075;32;20082;-70
2022/03/29 03:04:46;;;;;;;13.65;7.07;;;;;;;8.24;64.79;98363.84;4365869;32;20162;-70
2022/03/29 03:07:14;;;;;;;13.65;7.53;;;;;;;8.16;65.20;98356.69;4379101;32;20106;-70
2022/03/29 03:09:41;;;;;;;11.55;6.60;;;;;;;8.29;64.96;98353.00;4379017;32;20109;-70
2022/03/29 03:12:08;;;;;;;10.25;6.25;;;;;;;8.42;64.48;98358.81;4379277;32;20125;-70
2022/03/29 03:14:35;;;;;;;10.45;7.40;;;;;;;8.49;64.25;98365.19;4378958;32;20094;-70
2022/03/29 03:17:03;;;;;;;12.43;6.78;;;;;;;8.62;63.75;98364.94;4379031;32;20095;-70
2022/03/29 03:19:36;;;;;;;13.13;7.03;;;;;;;8.59;63.88;98359.16;4379010;32;20432;-70
2022/03/29 03:22:04;;;;;;;12.35;7.05;;;;;;;8.35;64.66;98358.50;4378996;32;20075;-69
2022/03/29 03:24:31;;;;;;;13.75;7.20;;;;;;;8.47;64.55;98351.44;4378951;32;20472;-70
2022/03/29 03:26:58;;;;;;;11.00;6.85;;;;;;;8.62;63.92;98351.88;4378836;32;20141;-70
2022/03/29 03:29:26;;;;;;;14.25;6.95;;;;;;;8.25;64.97;98347.25;4378764;32;20071;-70
2022/03/29 03:31:53;;;;;;;11.30;6.55;;;;;;;8.41;64.42;98351.12;4378740;32;20083;-70
2022/03/29 03:34:20;;;;;;;12.68;7.68;;;;;;;8.24;64.81;98344.78;4378693;32;20114;-70
2022/03/29 03:36:47;;;;;;;17.15;7.57;;;;;;;8.25;64.76;98347.25;4378724;32;20102;-70
2022/03/29 03:39:14;;;;;;;13.43;7.45;;;;;;;8.25;64.41;98344.63;4378729;32;20497;-70
2022/03/29 03:41:42;;;;;;;13.73;6.90;;;;;;;8.25;64.29;98342.03;4378709;32;20083;-70
2022/03/29 03:44:11;;;;;;;13.43;7.55;;;;;;;8.19;64.91;98339.94;4378554;32;20103;-70
2022/03/29 03:46:38;;;;;;;12.27;7.72;;;;;;;8.14;65.00;98336.91;4379926;32;20098;-70
2022/03/29 03:49:06;;;;;;;17.77;7.97;;;;;;;8.14;65.15;98337.72;4380507;32;20109;-70
2022/03/29 03:51:33;;;;;;;13.70;7.28;;;;;;;8.23;65.06;98332.66;4380767;32;20113;-70
2022/03/29 03:54:00;;;;;;;12.82;7.37;;;;;;;8.29;64.75;98334.75;4380626;32;20103;-70
2022/03/29 03:56:28;;;;;;;12.85;7.80;;;;;;;8.34;64.89;98335.16;4380690;32;20185;-69
2022/03/29 03:58:55;;;;;;;15.35;7.97;;;;;;;8.37;64.73;98339.28;4380368;32;20167;-70
2022/03/29 04:01:23;;;;;;;13.52;8.18;;;;;;;8.24;65.13;98329.94;4380521;32;20459;-72
2022/03/29 04:03:51;;;;;;;12.37;7.68;;;;;;;8.24;65.46;98334.34;4380178;32;20133;-72
2022/03/29 04:06:22;;;;;;;11.88;7.68;;;;;;;8.35;65.18;98327.19;4380322;32;20432;-72
2022/03/29 04:08:50;;;;;;;13.93;8.00;;;;;;;8.56;64.35;98328.94;4380165;32;20441;-72
2022/03/29 04:11:18;;;;;;;14.38;7.60;;;;;;;8.68;63.89;98330.44;4380254;32;20083;-72
2022/03/29 04:13:45;;;;;;;16.50;7.62;;;;;;;8.69;63.90;98319.06;4380195;32;20151;-72
2022/03/29 04:19:43;;;;;;;10.18;7.25;;;;;;;8.60;64.31;98325.09;4380298;32;20546;-72
2022/03/29 04:22:10;;;;;;;11.82;7.50;;;;;;;8.74;63.81;98325.66;4380307;32;20179;-72
2022/03/29 04:24:38;;;;;;;15.35;8.45;;;;;;;8.84;63.45;98321.25;4380231;32;20687;-72
2022/03/29 04:27:05;;;;;;;15.80;7.53;;;;;;;8.89;63.38;98321.69;4380178;32;20094;-72
2022/03/29 04:29:32;;;;;;;12.57;7.53;;;;;;;8.77;63.62;98325.38;4380076;32;20154;-72
2022/03/29 04:31:59;;;;;;;14.30;9.32;;;;;;;8.88;63.29;98320.03;4380214;32;20117;-72
2022/03/29 04:34:26;;;;;;;15.73;8.00;;;;;;;8.96;62.95;98322.78;4380161;32;20106;-72
2022/03/29 04:36:54;;;;;;;12.25;7.35;;;;;;;8.93;63.00;98323.03;4380214;32;20232;-72
2022/03/29 04:39:21;;;;;;;17.85;7.28;;;;;;;9.20;61.94;98316.28;4380165;32;20107;-72
2022/03/29 04:41:48;;;;;;;16.83;7.75;;;;;;;9.22;61.44;98309.97;4380140;32;20092;-72
2022/03/29 04:48:04;;;;;;;11.95;7.07;;;;;;;9.27;61.05;98309.53;4379713;32;20120;-72
2022/03/29 04:50:32;;;;;;;12.48;7.90;;;;;;;9.32;60.31;98303.91;4379924;32;20094;-72
2022/03/29 04:52:59;;;;;;;18.27;8.15;;;;;;;9.31;60.27;98299.63;4379919;32;20091;-72
2022/03/29 04:58:56;;;;;;;17.12;7.97;;;;;;;9.09;60.64;98295.53;4379181;32;20144;-72
2022/03/29 05:01:23;;;;;;;19.48;8.15;;;;;;;9.18;60.23;98294.72;4379412;32;20105;-73
2022/03/29 05:03:51;;;;;;;13.82;8.07;;;;;;;9.23;60.04;98295.94;4366007;32;20095;-72
2022/03/29 05:06:18;;;;;;;10.85;7.90;;;;;;;9.37;59.29;98289.44;4379816;32;20122;-72
2022/03/29 05:08:45;;;;;;;15.48;8.70;;;;;;;9.32;59.45;98296.88;4379702;32;20129;-72
2022/03/29 05:11:12;;;;;;;22.02;7.93;;;;;;;9.24;59.75;98291.53;4379239;32;20082;-72
2022/03/29 05:17:10;;;;;;;12.02;7.45;;;;;;;9.30;59.59;98296.19;4379017;32;20118;-73
2022/03/29 05:19:38;;;;;;;16.30;8.82;;;;;;;9.64;58.34;98294.88;4379487;32;20117;-72
2022/03/29 05:22:05;;;;;;;15.40;7.35;;;;;;;9.62;58.62;98300.25;4379340;32;20490;-72
2022/03/29 05:24:32;;;;;;;14.75;7.95;;;;;;;9.65;58.57;98299.13;4379515;32;20087;-72
2022/03/29 05:27:00;;;;;;;17.15;8.95;;;;;;;9.79;58.36;98300.47;4379341;32;20542;-72
2022/03/29 05:29:28;;;;;;;18.92;8.85;;;;;;;9.89;58.19;98302.06;4379494;32;20094;-72
2022/03/29 05:31:56;;;;;;;13.13;7.75;;;;;;;10.08;57.49;98303.78;4379530;32;20160;-72
2022/03/29 05:34:23;;;;;;;15.65;8.40;;;;;;;10.07;57.24;98307.34;4379576;32;20103;-72
2022/03/29 05:36:50;;;;;;;12.07;7.82;;;;;;;10.27;56.80;98307.25;4379645;32;20098;-72
2022/03/29 05:39:18;;;;;;;25.65;8.20;;;;;;;10.40;56.44;98299.06;4379442;32;20472;-72
2022/03/29 05:45:16;;;;;;;14.18;8.00;;;;;;;10.66;55.77;98304.44;4379611;32;20108;-72
2022/03/29 05:51:01;;;;;;;16.23;8.48;;;;;;;10.54;55.32;98309.06;4373388;32;20120;-73
2022/03/29 05:53:29;;;;;;;15.40;7.82;;;;;;;11.01;54.42;98297.53;4379167;32;20110;-73
2022/03/29 05:55:56;;;;;;;16.85;8.88;;;;;;;11.03;54.01;98300.00;4379271;32;20445;-72
2022/03/29 05:58:24;;;;;;;23.35;8.70;;;;;;;11.10;53.61;98301.84;4379385;32;20449;-72
2022/03/29 06:00:51;;;;;;;13.07;8.45;;;;;;;11.34;52.87;98308.28;4379051;32;20161;-72
2022/03/29 06:03:18;;;;;;;11.50;7.47;;;;;;;11.54;52.84;98301.81;4378859;32;20393;-74
2022/03/29 06:05:46;;;;;;;15.65;8.60;;;;;;;11.53;52.68;98308.03;4376503;32;73438;-73
2022/03/29 06:08:13;;;;;;;14.27;8.50;;;;;;;11.80;52.07;98302.78;4377673;32;20107;-72
2022/03/29 06:14:11;;;;;;;18.52;8.68;;;;;;;12.34;51.03;98299.91;4379413;32;20112;-73
2022/03/29 06:16:38;;;;;;;14.48;8.60;;;;;;;12.20;50.30;98299.56;4379255;32;20091;-75
2022/03/29 06:22:39;;;;;;;21.48;8.85;;;;;;;12.49;48.93;98302.72;4379465;32;20112;-75
2022/03/29 06:25:08;;;;;;;16.05;9.30;;;;;;;12.44;48.72;98287.44;4379571;32;20102;-75
2022/03/29 06:27:35;;;;;;;16.42;9.85;;;;;;;12.67;48.53;98292.94;4379378;32;20156;-74
2022/03/29 06:30:06;;;;;;;19.50;9.85;;;;;;;13.14;46.11;98292.28;4365791;32;20185;-73
2022/03/29 06:32:34;;;;;;;21.40;10.10;;;;;;;12.75;46.40;98284.22;4379189;32;20094;-75
2022/03/29 06:35:01;;;;;;;15.20;9.52;;;;;;;12.62;47.08;98283.88;4378919;32;20086;-74
2022/03/29 06:37:31;;;;;;;16.20;9.50;;;;;;;12.87;46.95;98290.81;4379168;32;20114;-74
2022/03/29 06:39:59;;;;;;;15.88;9.52;;;;;;;13.35;45.79;98288.34;4379121;32;20122;-74
2022/03/29 06:42:26;;;;;;;19.98;9.65;;;;;;;13.00;46.17;98287.69;4379250;32;20090;-73
2022/03/29 06:48:25;;;;;;;18.48;10.05;;;;;;;13.37;45.02;98290.81;4379065;32;20125;-75
2022/03/29 06:50:52;;;;;;;19.02;10.65;;;;;;;13.35;44.83;98288.34;4378931;32;20146;-76
2022/03/29 06:53:19;;;;;;;19.02;10.10;;;;;;;13.00;45.86;98284.25;4379059;32;20110;-76
2022/03/29 06:55:46;;;;;;;17.00;9.88;;;;;;;13.23;45.26;98287.84;4378853;32;20156;-75
2022/03/29 06:58:14;;;;;;;14.90;10.27;;;;;;;13.28;44.55;98288.16;4378794;32;20182;-74
2022/03/29 07:00:45;;;;;;;20.95;9.70;;;;;;;13.39;44.83;98284.41;4379055;32;20155;-75
2022/03/29 07:03:13;;;;;;;21.60;11.38;;;;;;;13.44;44.95;98286.53;4378637;32;20170;-75
2022/03/29 07:05:42;;;;;;;16.40;9.95;;;;;;;13.82;44.07;98284.13;4378734;32;20567;-75
2022/03/29 07:08:10;;;;;;;16.55;10.20;;;;;;;13.60;44.46;98286.50;4378958;32;20109;-74
2022/03/29 07:16:55;;;;;;;15.60;10.35;;;;;;;13.70;44.93;98291.59;4378656;32;20161;-76
2022/03/29 07:19:23;;;;;;;20.60;10.43;;;;;;;13.76;44.75;98288.28;4378180;32;20433;-74
2022/03/29 07:25:21;;;;;;;20.70;11.60;;;;;;;14.23;44.37;98283.97;4378240;32;20388;-74
2022/03/29 07:31:18;;;;;;;18.48;10.90;;;;;;;14.27;44.97;98284.44;4378569;32;20104;-73
2022/03/29 07:33:46;;;;;;;21.20;10.73;;;;;;;14.36;43.80;98280.75;4378372;32;20139;-76
2022/03/29 07:36:13;;;;;;;22.00;11.20;;;;;;;14.55;43.00;98279.50;4378018;32;20670;-75
2022/03/29 07:38:40;;;;;;;22.85;10.60;;;;;;;14.85;42.43;98284.91;4378069;32;20483;-74
2022/03/29 07:41:07;;;;;;;19.12;10.32;;;;;;;14.48;43.22;98283.81;4377740;32;20129;-75
2022/03/29 07:47:05;;;;;;;20.75;11.73;;;;;;;14.69;43.40;98277.97;4378163;32;20170;-76
2022/03/29 07:49:32;;;;;;;26.70;11.82;;;;;;;15.26;41.92;98280.13;4378207;32;20129;-76
2022/03/29 07:52:19;;;;;;;18.27;10.30;;;;;;;15.12;41.88;98277.44;4378571;32;20133;-77
2022/03/29 07:54:47;;;;;;;24.65;11.55;;;;;;;15.02;41.63;98275.88;4378240;32;20095;-75
2022/03/29 07:57:14;;;;;;;25.35;11.98;;;;;;;14.94;42.90;98278.56;4376490;32;20124;-72
2022/03/29 08:02:53;;;;;;;20.73;11.15;;;;;;;15.40;41.39;98272.41;4377768;32;20508;-76
2022/03/29 08:05:21;;;;;;;17.70;10.73;;;;;;;15.34;41.16;98268.66;4377826;32;20471;-75
2022/03/29 08:07:48;;;;;;;19.92;11.73;;;;;;;15.38;41.05;98269.97;4378075;32;20218;-75
2022/03/29 08:10:16;;;;;;;22.77;11.75;;;;;;;15.39;41.31;98276.03;4377881;32;20101;-75
2022/03/29 08:12:44;;;;;;;24.12;11.70;;;;;;;15.30;41.56;98263.94;4364605;32;20460;-75
2022/03/29 08:15:11;;;;;;;19.50;11.63;;;;;;;15.28;41.84;98269.41;4377863;32;20103;-73
2022/03/29 08:17:39;;;;;;;22.02;10.23;;;;;;;15.59;42.22;98260.50;4377685;32;20099;-73
2022/03/29 08:23:26;;;;;;;18.60;11.68;;;;;;;15.99;40.37;98261.06;4377595;32;20113;-73
2022/03/29 08:25:53;;;;;;;25.42;11.73;;;;;;;16.41;39.11;98270.09;4364206;32;20130;-72
2022/03/29 08:28:21;;;;;;;20.77;11.55;;;;;;;16.43;39.84;98268.06;4377532;32;20117;-72
2022/03/29 08:30:48;;;;;;;19.60;11.12;;;;;;;16.42;39.12;98266.41;4377400;32;20075;-72
2022/03/29 08:33:16;;;;;;;22.37;11.68;;;;;;;16.68;39.34;98257.13;4379715;32;20189;-73
2022/03/29 08:39:14;;;;;;;24.20;11.27;;;;;;;17.78;37.96;98260.19;4380030;32;20164;-72
2022/03/29 08:45:14;;;;;;;21.10;11.43;;;;;;;18.51;36.45;98251.72;4379876;32;20105;-73
2022/03/29 08:47:44;;;;;;;25.45;12.35;;;;;;;18.64;35.90;98253.59;4379638;32;20107;-74
2022/03/29 08:50:13;;;;;;;29.12;12.52;;;;;;;18.82;36.34;98250.34;4379751;32;20099;-73
2022/03/29 08:52:41;;;;;;;23.70;11.90;;;;;;;19.09;35.60;98251.19;4379703;32;20165;-73
2022/03/29 08:58:38;;;;;;;31.33;12.77;;;;;;;19.08;33.81;98246.91;4379749;32;20121;-74
2022/03/29 09:01:06;;;;;;;21.35;11.43;;;;;;;19.13;34.97;98246.28;4379925;32;20526;-74
2022/03/29 09:06:54;;;;;;;20.85;11.70;;;;;;;19.08;33.99;98236.28;4378387;32;20133;-72
2022/03/29 09:09:34;;;;;;;20.05;11.02;;;;;;;19.24;34.40;98228.91;4379557;32;20095;-72
2022/03/29 09:12:19;;;;;;;25.67;11.85;;;;;;;19.13;32.67;98233.81;4366114;32;20106;-71
2022/03/29 09:18:23;;;;;;;35.03;12.95;;;;;;;19.63;32.75;98222.69;4379685;32;20149;-72
2022/03/29 09:21:08;;;;;;;26.35;11.82;;;;;;;20.50;32.03;98218.84;4379608;32;20118;-72
2022/03/29 09:27:09;;;;;;;20.20;11.95;;;;;;;20.24;32.39;98219.81;4379285;32;20152;-72
2022/03/29 09:33:11;;;;;;;20.00;10.48;;;;;;;20.78;30.34;98218.47;4379220;32;20510;-73
2022/03/29 09:35:57;;;;;;;34.45;12.32;;;;;;;19.93;30.20;98216.09;4379281;32;20149;-72
2022/03/29 09:41:58;;;;;;;14.18;9.32;;;;;;;20.74;30.84;98215.44;4379271;32;20115;-72
2022/03/29 09:47:56;;;;;;;16.92;10.20;;;;;;;21.49;28.65;98210.25;4379122;32;20142;-73
2022/03/29 09:53:43;;;;;;;18.60;10.93;;;;;;;20.76;29.02;98201.91;4378876;32;20101;-73
2022/03/29 09:56:13;;;;;;;19.05;10.13;;;;;;;21.03;28.83;98197.19;4378852;32;20137;-72
2022/03/29 09:59:19;;;;;;;18.02;9.90;;;;;;;20.91;29.29;98198.94;4379243;32;20090;-74
2022/03/29 10:05:19;;;;;;;17.83;8.73;;;;;;;20.46;28.40;98193.72;4379336;32;20250;-74
2022/03/29 10:14:20;;;;;;;19.20;9.52;;;;;;;20.18;29.14;98179.75;4379195;32;20152;-72
2022/03/29 10:20:19;;;;;;;15.48;9.85;;;;;;;20.69;27.93;98166.53;4379522;32;20174;-72
2022/03/29 10:22:46;;;;;;;18.33;9.23;;;;;;;20.37;28.68;98159.38;4365885;32;20090;-72
2022/03/29 10:25:15;;;;;;;21.58;10.10;;;;;;;20.45;26.74;98165.47;4379532;32;20082;-72
2022/03/29 10:27:42;;;;;;;16.60;10.68;;;;;;;20.15;26.32;98147.44;4379431;32;20400;-73
2022/03/29 10:30:10;;;;;;;15.77;9.82;;;;;;;20.62;27.05;98152.44;4379295;32;20193;-73
2022/03/29 10:32:37;;;;;;;15.23;9.50;;;;;;;20.86;26.64;98145.50;4379145;32;20169;-72
2022/03/29 10:38:44;;;;;;;17.12;9.10;;;;;;;21.22;26.07;98141.25;4379230;32;20148;-72
2022/03/29 10:45:03;;;;;;;18.83;9.48;;;;;;;20.75;26.30;98128.41;4379937;32;20679;-72
2022/03/29 10:51:24;;;;;;;18.87;10.63;;;;;;;21.40;25.94;98122.59;4378846;32;20121;-72
2022/03/29 10:57:28;;;;;;;22.60;10.00;;;;;;;21.80;25.65;98106.16;4378136;32;20113;-73
2022/03/29 11:03:27;;;;;;;17.30;9.88;;;;;;;22.17;24.64;98089.19;4379128;32;20101;-72
2022/03/29 11:09:04;;;;;;;19.87;10.57;;;;;;;22.66;24.62;98083.69;4377651;32;20418;-72
2022/03/29 11:15:24;;;;;;;25.35;10.45;;;;;;;22.61;23.76;98070.25;4378608;32;20109;-72
2022/03/29 11:21:31;;;;;;;18.95;9.70;;;;;;;23.09;24.63;98071.84;4378761;32;20133;-72
2022/03/29 11:27:32;;;;;;;23.05;10.27;;;;;;;23.13;23.00;98042.78;4378820;32;20100;-72
2022/03/29 11:33:34;;;;;;;21.25;9.68;;;;;;;23.03;22.67;98035.37;4378431;32;20124;-71
2022/03/29 11:39:32;;;;;;;47.60;10.23;;;;;;;23.19;23.48;98026.66;4378326;32;20373;-71
2022/03/29 11:45:35;;;;;;;18.90;10.23;;;;;;;23.06;21.72;98020.72;4377143;32;20133;-71
2022/03/29 11:51:33;;;;;;;14.93;9.43;;;;;;;23.15;22.17;98013.97;4377875;32;20141;-70
2022/03/29 11:57:31;;;;;;;17.85;10.05;;;;;;;23.71;20.88;98003.53;4377992;32;20120;-72
2022/03/29 12:03:34;;;;;;;19.23;9.25;;;;;;;24.08;20.78;97993.19;4378017;32;20109;-73
2022/03/29 12:09:33;;;;;;;21.08;8.80;;;;;;;22.80;20.41;97980.94;4379627;32;20251;-71
2022/03/29 12:15:31;;;;;;;17.35;9.98;;;;;;;23.56;20.66;97982.69;4379719;32;20252;-73
2022/03/29 12:21:28;;;;;;;21.08;9.23;;;;;;;23.40;21.08;97968.22;4379697;32;20116;-71
2022/03/29 12:24:08;;;;;;;18.08;9.35;;;;;;;23.13;20.80;97970.66;4379296;32;20579;-73
2022/03/29 12:30:06;;;;;;;18.35;9.43;;;;;;;23.25;20.11;97960.72;4379719;32;20265;-72
2022/03/29 12:36:13;;;;;;;14.82;8.13;;;;;;;22.99;20.74;97948.72;4380060;32;20113;-71
2022/03/29 12:42:16;;;;;;;15.07;8.57;;;;;;;22.32;20.97;97937.50;4380120;32;20161;-71
2022/03/29 12:44:51;;;;;;;14.38;9.27;;;;;;;22.12;20.63;97939.66;4379935;32;20086;-71
2022/03/29 12:50:49;;;;;;;19.48;9.00;;;;;;;22.92;21.05;97935.53;4379943;32;20573;-71
2022/03/29 12:53:16;;;;;;;15.55;9.57;;;;;;;22.90;20.35;97918.09;4366470;32;20417;-72
2022/03/29 12:55:55;;;;;;;16.45;9.35;;;;;;;22.74;20.76;97923.16;4379951;32;20098;-73
2022/03/29 13:01:59;;;;;;;16.30;9.13;;;;;;;22.89;20.03;97905.78;4379548;32;20105;-71
2022/03/29 13:07:57;;;;;;;18.58;9.18;;;;;;;22.89;20.21;97903.91;4379964;32;20124;-71
2022/03/29 13:10:40;;;;;;;22.23;9.90;;;;;;;23.00;20.40;97896.94;4379558;32;20112;-71
2022/03/29 13:16:52;;;;;;;17.58;9.90;;;;;;;23.17;20.09;97895.13;4379848;32;20145;-70
2022/03/29 13:19:20;;;;;;;17.98;8.75;;;;;;;22.97;19.58;97894.75;4366166;32;20460;-72
2022/03/29 13:21:58;;;;;;;13.20;7.35;;;;;;;23.16;19.77;97896.16;4379674;32;20078;-71
2022/03/29 13:27:55;;;;;;;19.70;8.80;;;;;;;23.13;19.44;97893.97;4379842;32;20125;-72
2022/03/29 13:30:22;;;;;;;15.65;7.40;;;;;;;23.36;19.32;97887.72;4379597;32;20095;-71
2022/03/29 13:32:52;;;;;;;15.65;8.15;;;;;;;23.46;19.69;97870.22;4379972;32;20083;-71
2022/03/29 13:38:52;;;;;;;15.52;8.55;;;;;;;22.12;21.27;97884.47;4379675;32;20519;-72
2022/03/29 13:44:50;;;;;;;18.92;8.20;;;;;;;21.68;21.37;97876.03;4379505;32;20429;-71
2022/03/29 13:50:48;;;;;;;20.88;8.13;;;;;;;21.79;21.02;97867.22;4379385;32;20122;-72
2022/03/29 13:56:34;;;;;;;25.83;9.07;;;;;;;21.71;21.53;97859.56;4379753;32;20471;-72
2022/03/29 13:59:03;;;;;;;18.65;7.25;;;;;;;22.01;21.25;97847.94;4379440;32;20578;-72
2022/03/29 14:05:01;;;;;;;15.80;7.25;;;;;;;21.71;20.88;97856.91;4379454;32;20486;-70
2022/03/29 14:07:28;;;;;;;13.85;7.95;;;;;;;21.72;20.87;97858.50;4379400;32;20153;-72
2022/03/29 14:09:55;;;;;;;14.27;8.20;;;;;;;21.54;21.05;97848.78;4379386;32;20105;-71
2022/03/29 14:12:22;;;;;;;19.02;8.88;;;;;;;21.58;20.89;97843.81;4379485;32;20095;-72
2022/03/29 14:14:50;;;;;;;14.23;7.35;;;;;;;21.83;20.71;97848.88;4379483;32;20153;-71
2022/03/29 14:20:52;;;;;;;14.07;7.87;;;;;;;21.93;21.62;97850.97;4379544;32;20163;-72
2022/03/29 14:23:21;;;;;;;16.40;7.78;;;;;;;21.59;21.84;97837.41;4379429;32;20093;-72
2022/03/29 14:29:19;;;;;;;16.08;8.23;;;;;;;21.24;22.22;97835.50;4379242;32;20148;-71
2022/03/29 14:32:09;;;;;;;16.70;8.35;;;;;;;21.28;22.79;97837.47;4379190;32;20106;-71
2022/03/29 14:34:37;;;;;;;22.27;8.68;;;;;;;21.21;22.59;97836.78;4379338;32;20466;-72
2022/03/29 14:37:05;;;;;;;14.77;8.27;;;;;;;21.12;23.06;97829.34;4378851;32;20124;-72
2022/03/29 14:39:33;;;;;;;19.25;8.90;;;;;;;21.19;22.83;97830.06;4378962;32;20142;-72
2022/03/29 14:42:00;;;;;;;18.15;8.68;;;;;;;21.53;23.11;97827.69;4379225;32;20095;-72
2022/03/29 14:44:27;;;;;;;17.73;8.23;;;;;;;21.35;23.07;97825.91;4378915;32;20125;-72
2022/03/29 14:46:57;;;;;;;16.05;8.25;;;;;;;20.89;23.63;97814.91;4379129;32;20190;-71
2022/03/29 14:49:26;;;;;;;23.02;9.07;;;;;;;21.12;23.95;97814.19;4379021;32;20109;-72
2022/03/29 14:51:58;;;;;;;13.27;8.00;;;;;;;21.40;23.90;97812.72;4379017;32;20090;-72
2022/03/29 14:54:26;;;;;;;15.70;8.43;;;;;;;21.45;23.67;97810.97;4379275;32;20484;-72
2022/03/29 15:00:24;;;;;;;14.30;9.27;;;;;;;20.69;24.13;97816.00;4379040;32;20124;-72
2022/03/29 15:02:51;;;;;;;17.45;10.23;;;;;;;20.38;24.39;97799.22;4378867;32;20083;-72
2022/03/29 15:05:18;;;;;;;18.52;8.52;;;;;;;20.29;24.91;97795.25;4365509;32;20094;-71
2022/03/29 15:07:47;;;;;;;17.52;9.38;;;;;;;20.08;25.33;97803.69;4378679;32;20161;-70
2022/03/29 15:13:33;;;;;;;20.12;8.18;;;;;;;20.16;25.03;97798.06;4378594;32;20152;-71
2022/03/29 15:16:00;;;;;;;16.50;8.27;;;;;;;20.11;25.02;97789.94;4378546;32;20159;-71
2022/03/29 15:18:27;;;;;;;18.12;9.15;;;;;;;19.88;25.33;97786.09;4378355;32;20164;-71
2022/03/29 15:20:55;;;;;;;17.95;9.40;;;;;;;19.79;25.56;97790.91;4378615;32;20082;-71
2022/03/29 15:23:22;;;;;;;16.12;8.52;;;;;;;19.82;25.67;97789.66;4378425;32;20094;-71